Time;durP1;ratioP1;P1;durP2;ratioP2;P2;SDS_P1;SDS_P2;PMS_P1;PMS_P2;Temp;Humidity;BMP_temperature;BMP_pressure;BME280_temperature;BME280_humidity;BME280_pressure;Samples;Min_cycle;Max_cycle;Signal;HPM_P1;HPM_P2
2021/06/12 00:00:17;;;;;;;4.43;4.00;;;;;;;18.77;58.17;95096.41;5055663;28;20439;-69
2021/06/12 00:02:44;;;;;;;4.20;3.80;;;;;;;18.72;57.95;95104.47;5050466;28;20450;-70
2021/06/12 00:05:13;;;;;;;4.23;3.77;;;;;;;18.77;58.47;95096.41;5060705;28;20438;-69
2021/06/12 00:07:40;;;;;;;5.57;3.70;;;;;;;18.79;57.97;95088.94;5058193;28;20550;-71
2021/06/12 00:10:10;;;;;;;5.53;3.93;;;;;;;18.90;57.86;95095.56;5050397;28;20447;-70
2021/06/12 00:12:37;;;;;;;6.03;3.37;;;;;;;19.03;57.75;95100.03;5060513;28;20845;-68
2021/06/12 00:15:10;;;;;;;4.30;3.90;;;;;;;19.06;57.19;95094.13;5067297;28;20446;-66
2021/06/12 00:17:37;;;;;;;8.43;3.97;;;;;;;18.78;57.78;95084.69;5050015;28;20471;-68
2021/06/12 00:20:07;;;;;;;4.37;3.97;;;;;;;18.98;57.36;95088.72;5062565;28;20457;-68
2021/06/12 00:22:34;;;;;;;3.77;3.30;;;;;;;18.80;57.77;95095.81;5057970;28;20431;-71
2021/06/12 00:25:01;;;;;;;4.50;3.57;;;;;;;18.78;58.06;95084.69;5055826;28;20431;-71
2021/06/12 00:27:28;;;;;;;6.17;4.30;;;;;;;18.85;58.16;95092.25;5050572;28;20439;-70
2021/06/12 00:29:55;;;;;;;6.20;3.87;;;;;;;18.78;58.18;95086.56;5049872;28;20450;-67
2021/06/12 00:32:22;;;;;;;5.27;3.90;;;;;;;18.80;58.00;95090.50;5054084;28;20484;-69
2021/06/12 00:34:49;;;;;;;5.03;4.53;;;;;;;18.80;57.80;95082.53;5069564;28;20446;-70
2021/06/12 00:37:16;;;;;;;7.00;4.23;;;;;;;18.72;58.18;95077.94;5069960;28;20444;-71
2021/06/12 00:39:43;;;;;;;7.20;4.73;;;;;;;18.67;58.18;95079.91;5057461;28;20979;-67
2021/06/12 00:42:10;;;;;;;5.73;4.90;;;;;;;18.59;58.96;95084.09;5068331;28;20449;-68
2021/06/12 00:44:37;;;;;;;6.23;4.70;;;;;;;18.55;58.68;95087.63;5069670;28;20443;-71
2021/06/12 00:47:04;;;;;;;6.10;4.63;;;;;;;18.52;59.30;95083.72;5067280;28;20438;-69
2021/06/12 00:49:31;;;;;;;7.57;6.20;;;;;;;18.63;58.60;95079.75;5058357;28;20450;-68
2021/06/12 00:51:58;;;;;;;8.53;5.53;;;;;;;18.54;58.83;95080.78;5071219;28;20529;-69
2021/06/12 00:54:25;;;;;;;14.63;12.80;;;;;;;18.58;59.12;95074.56;5069996;28;20495;-73
2021/06/12 00:56:53;;;;;;;28.53;24.20;;;;;;;18.59;58.31;95073.50;5070183;28;20446;-67
2021/06/12 00:59:21;;;;;;;43.13;37.90;;;;;;;18.54;58.79;95081.53;5069604;28;20477;-70
2021/06/12 01:01:50;;;;;;;43.87;39.17;;;;;;;18.66;58.22;95079.16;5069763;28;20430;-73
2021/06/12 01:04:17;;;;;;;43.73;38.07;;;;;;;18.66;58.41;95083.69;5055113;28;20983;-69
2021/06/12 01:06:51;;;;;;;41.83;37.30;;;;;;;18.60;58.25;95085.66;5055756;28;20480;-69
2021/06/12 01:09:19;;;;;;;31.50;28.00;;;;;;;18.55;58.78;95085.78;5069645;28;20473;-67
2021/06/12 01:12:21;;;;;;;29.47;26.47;;;;;;;18.52;58.96;95089.00;5055209;28;20461;-70
2021/06/12 01:14:56;;;;;;;21.93;19.40;;;;;;;18.29;59.61;95090.03;5055745;28;20525;-68
2021/06/12 01:17:33;;;;;;;18.10;16.30;;;;;;;18.23;59.83;95101.84;5057835;28;20568;-69
2021/06/12 01:20:03;;;;;;;16.23;14.67;;;;;;;18.14;59.63;95098.31;5070385;28;20426;-67
2021/06/12 01:22:46;;;;;;;16.63;14.90;;;;;;;18.06;60.14;95096.38;5071534;28;20438;-67
2021/06/12 01:25:56;;;;;;;15.57;13.20;;;;;;;18.20;60.28;95102.44;5067536;28;20433;-67
2021/06/12 01:28:38;;;;;;;15.20;13.70;;;;;;;18.25;59.76;95099.66;5053311;28;20458;-71
2021/06/12 01:31:06;;;;;;;23.23;15.50;;;;;;;18.19;59.54;95088.38;5053277;28;20482;-70
2021/06/12 01:33:34;;;;;;;14.93;13.43;;;;;;;18.22;59.97;95100.28;5053149;28;20442;-69
2021/06/12 01:36:04;;;;;;;13.70;12.40;;;;;;;18.25;59.63;95104.97;5053836;28;20454;-68
2021/06/12 01:38:36;;;;;;;12.07;10.90;;;;;;;18.15;59.67;95105.19;5066883;28;20485;-67
2021/06/12 01:41:06;;;;;;;11.17;9.87;;;;;;;18.27;60.07;95110.78;5063088;28;20466;-66
2021/06/12 01:43:35;;;;;;;11.13;10.03;;;;;;;18.24;59.51;95108.72;5070992;28;20559;-70
2021/06/12 01:46:04;;;;;;;11.00;9.83;;;;;;;18.20;59.77;95107.75;5060850;28;20812;-68
2021/06/12 01:48:32;;;;;;;9.97;8.63;;;;;;;18.23;60.20;95107.13;5070685;28;21393;-66
2021/06/12 01:51:03;;;;;;;11.27;7.30;;;;;;;18.24;59.25;95103.41;5059868;28;20814;-67
2021/06/12 01:53:33;;;;;;;7.73;6.80;;;;;;;18.17;59.57;95105.69;5058759;28;21173;-69
2021/06/12 01:56:03;;;;;;;7.67;5.87;;;;;;;18.20;59.84;95105.09;5052345;28;20443;-65
2021/06/12 01:58:32;;;;;;;7.50;5.47;;;;;;;18.13;59.75;95113.47;5065248;28;20940;-70
2021/06/12 02:01:01;;;;;;;6.90;4.50;;;;;;;18.12;59.35;95116.38;5067627;28;20443;-68
2021/06/12 02:03:29;;;;;;;6.77;5.37;;;;;;;18.13;59.32;95110.03;5064468;28;20491;-73
2021/06/12 02:05:59;;;;;;;5.13;4.63;;;;;;;18.13;59.24;95113.47;5061083;28;20435;-67
2021/06/12 02:08:28;;;;;;;5.77;4.90;;;;;;;18.15;59.68;95115.81;5066077;28;21165;-70
2021/06/12 02:10:57;;;;;;;7.40;4.77;;;;;;;18.03;59.82;95113.66;5052708;28;20538;-70
2021/06/12 02:13:25;;;;;;;5.37;4.80;;;;;;;18.11;59.34;95106.88;5068248;28;20549;-70
2021/06/12 02:15:54;;;;;;;5.20;4.70;;;;;;;18.22;59.46;95116.19;5064694;28;20451;-69
2021/06/12 02:18:24;;;;;;;6.80;4.70;;;;;;;18.21;58.80;95112.75;5054256;28;20474;-69
2021/06/12 02:20:53;;;;;;;12.03;5.77;;;;;;;17.96;59.00;95107.19;5060394;28;20990;-71
2021/06/12 02:23:23;;;;;;;7.03;4.57;;;;;;;17.74;60.51;95110.53;5057304;28;21031;-68
2021/06/12 02:25:51;;;;;;;7.33;4.53;;;;;;;17.83;60.12;95113.25;5052226;28;20450;-71
2021/06/12 02:28:19;;;;;;;8.50;5.17;;;;;;;17.64;60.25;95100.13;5052074;28;20434;-68
2021/06/12 02:30:53;;;;;;;11.07;4.80;;;;;;;17.99;59.41;95107.38;5051731;28;21383;-70
2021/06/12 02:33:23;;;;;;;7.57;4.93;;;;;;;18.09;59.10;95111.69;5051958;28;20504;-70
2021/06/12 02:35:51;;;;;;;7.30;4.80;;;;;;;17.93;59.69;95115.72;5052312;28;20446;-71
2021/06/12 02:38:18;;;;;;;5.90;5.10;;;;;;;17.72;60.71;95111.88;5050340;28;20475;-70
2021/06/12 02:40:45;;;;;;;5.60;5.00;;;;;;;17.76;60.72;95112.88;5072203;28;20485;-68
2021/06/12 02:43:12;;;;;;;6.07;5.03;;;;;;;17.85;60.32;95106.59;5059251;28;20451;-66
2021/06/12 02:45:41;;;;;;;5.33;4.80;;;;;;;17.98;59.99;95115.63;5057503;28;20430;-71
2021/06/12 02:48:14;;;;;;;5.20;4.70;;;;;;;18.03;59.50;95118.97;5072010;28;20533;-66
2021/06/12 02:50:43;;;;;;;6.07;4.43;;;;;;;18.04;59.74;95117.09;5071642;28;20446;-69
2021/06/12 02:53:11;;;;;;;6.50;4.97;;;;;;;17.93;59.84;95126.34;5061026;28;20439;-68
2021/06/12 02:55:43;;;;;;;6.23;4.73;;;;;;;17.95;60.22;95110.91;5068776;28;20444;-66
2021/06/12 02:58:14;;;;;;;7.17;5.23;;;;;;;17.83;60.69;95124.66;5071443;28;20493;-66
2021/06/12 03:00:43;;;;;;;5.40;4.90;;;;;;;17.88;60.22;95121.91;5055218;28;20553;-68
2021/06/12 03:03:13;;;;;;;8.27;5.00;;;;;;;17.86;60.24;95124.06;5051269;28;20485;-70
2021/06/12 03:05:43;;;;;;;12.90;5.80;;;;;;;17.88;60.73;95118.50;5051916;28;20443;-70
2021/06/12 03:08:14;;;;;;;8.33;5.67;;;;;;;17.40;60.85;95117.22;5051271;28;20534;-67
2021/06/12 03:10:42;;;;;;;9.63;5.27;;;;;;;17.41;61.36;95118.81;5051807;28;20431;-68
2021/06/12 03:13:13;;;;;;;6.03;4.97;;;;;;;17.37;61.88;95117.81;5065342;28;20887;-69
2021/06/12 03:15:43;;;;;;;7.80;5.60;;;;;;;17.33;61.54;95122.13;5071367;28;20958;-68
2021/06/12 03:18:11;;;;;;;9.23;5.33;;;;;;;17.46;61.77;95118.72;5057514;28;20482;-66
2021/06/12 03:20:40;;;;;;;7.80;5.07;;;;;;;17.35;62.44;95118.13;5057030;28;20524;-67
2021/06/12 03:23:08;;;;;;;10.30;5.47;;;;;;;17.46;61.56;95124.03;5071157;28;20442;-70
2021/06/12 03:25:37;;;;;;;6.20;5.20;;;;;;;17.42;62.11;95129.13;5070827;28;20956;-71
2021/06/12 03:28:04;;;;;;;7.63;4.93;;;;;;;17.41;62.13;95126.78;5071052;28;20442;-69
2021/06/12 03:30:31;;;;;;;9.83;5.23;;;;;;;17.36;61.52;95134.78;5070492;28;20496;-69
2021/06/12 03:33:00;;;;;;;8.70;4.90;;;;;;;17.41;62.36;95137.38;5071229;28;20495;-71
2021/06/12 03:35:28;;;;;;;8.40;5.50;;;;;;;17.41;62.15;95137.38;5054548;28;20541;-68
2021/06/12 03:37:56;;;;;;;7.87;5.70;;;;;;;17.43;62.02;95140.47;5062459;28;20438;-70
2021/06/12 03:40:25;;;;;;;11.80;6.20;;;;;;;17.44;61.86;95131.47;5070296;28;20457;-69
2021/06/12 03:42:54;;;;;;;13.10;6.20;;;;;;;17.41;61.15;95116.16;5071458;28;20434;-67
2021/06/12 03:45:22;;;;;;;9.77;6.00;;;;;;;17.46;61.32;95138.06;5070420;28;20446;-71
2021/06/12 03:47:50;;;;;;;9.27;5.73;;;;;;;17.61;61.46;95137.03;5062432;28;20439;-71
2021/06/12 03:50:19;;;;;;;10.03;5.83;;;;;;;17.47;62.24;95146.78;5051158;28;20459;-68
2021/06/12 03:52:49;;;;;;;7.67;6.43;;;;;;;17.55;62.74;95143.50;5070802;28;20430;-65
2021/06/12 03:55:17;;;;;;;10.57;6.73;;;;;;;17.66;61.96;95145.69;5055789;28;20450;-69
2021/06/12 03:57:44;;;;;;;9.97;6.50;;;;;;;17.60;61.77;95148.69;5070956;28;20452;-73
2021/06/12 04:00:12;;;;;;;14.03;6.70;;;;;;;17.56;61.57;95140.53;5070304;28;20484;-66
2021/06/12 04:02:47;;;;;;;7.83;6.50;;;;;;;17.53;61.29;95143.00;5056498;28;20429;-73
2021/06/12 04:05:15;;;;;;;10.63;5.83;;;;;;;17.57;61.72;95144.00;5062171;28;20446;-68
2021/06/12 04:07:42;;;;;;;9.60;6.23;;;;;;;17.56;61.91;95148.50;5059446;28;20439;-69
2021/06/12 04:10:10;;;;;;;8.77;6.00;;;;;;;17.57;61.51;95141.34;5049975;28;20526;-70
2021/06/12 04:12:37;;;;;;;7.33;6.03;;;;;;;17.59;60.83;95144.50;5060375;28;20459;-73
2021/06/12 04:15:06;;;;;;;8.73;6.60;;;;;;;17.51;61.35;95153.09;5055319;28;20453;-71
2021/06/12 04:17:33;;;;;;;7.67;6.20;;;;;;;17.26;61.79;95156.94;5070424;28;21286;-69
2021/06/12 04:20:00;;;;;;;8.97;6.60;;;;;;;17.22;62.12;95151.41;5054720;28;21022;-68
2021/06/12 04:22:27;;;;;;;6.57;5.33;;;;;;;17.36;61.72;95161.28;5057175;28;20430;-69
2021/06/12 04:24:54;;;;;;;9.30;6.13;;;;;;;17.32;61.44;95165.59;5057134;28;20945;-67
2021/06/12 04:27:21;;;;;;;6.47;5.73;;;;;;;17.29;61.97;95150.25;5069453;28;20966;-71
2021/06/12 04:29:48;;;;;;;10.20;6.30;;;;;;;17.58;60.73;95149.00;5058589;28;20445;-70
2021/06/12 04:32:15;;;;;;;9.10;6.23;;;;;;;17.68;60.37;95150.69;5049622;28;20485;-69
2021/06/12 04:34:42;;;;;;;10.97;5.60;;;;;;;17.68;60.33;95150.69;5049813;28;20439;-72
2021/06/12 04:37:09;;;;;;;8.50;6.33;;;;;;;17.77;59.72;95152.34;5055236;28;20437;-68
2021/06/12 04:39:36;;;;;;;10.73;6.03;;;;;;;17.68;60.01;95158.63;5069235;28;20860;-71
2021/06/12 04:42:03;;;;;;;7.37;5.50;;;;;;;17.64;60.38;95160.28;5070434;28;20484;-69
2021/06/12 04:44:30;;;;;;;7.13;5.73;;;;;;;17.49;60.85;95155.25;5069699;28;20434;-72
2021/06/12 04:46:57;;;;;;;8.40;6.13;;;;;;;17.26;61.48;95162.25;5068156;28;20443;-70
2021/06/12 04:49:24;;;;;;;14.37;6.70;;;;;;;17.10;62.83;95172.28;5057383;28;20446;-67
2021/06/12 04:51:51;;;;;;;7.50;6.20;;;;;;;17.29;62.49;95176.75;5069773;28;20442;-68
2021/06/12 04:54:17;;;;;;;12.83;6.70;;;;;;;17.51;61.33;95184.88;5069697;28;20602;-71
2021/06/12 04:56:44;;;;;;;12.07;6.40;;;;;;;17.47;61.84;95187.34;5069821;28;20449;-70
2021/06/12 04:59:11;;;;;;;12.83;6.83;;;;;;;17.37;61.59;95173.44;5069066;28;20856;-69
2021/06/12 05:01:38;;;;;;;9.57;6.53;;;;;;;17.37;62.27;95184.03;5073570;28;20446;-72
2021/06/12 05:04:05;;;;;;;9.43;6.67;;;;;;;17.49;61.98;95176.44;5073292;28;20457;-68
2021/06/12 05:06:32;;;;;;;11.70;7.70;;;;;;;17.57;61.74;95183.72;5060164;28;20439;-70
2021/06/12 05:08:59;;;;;;;10.53;6.70;;;;;;;17.61;61.09;95182.09;5055389;28;20875;-67
2021/06/12 05:11:27;;;;;;;8.20;7.07;;;;;;;17.63;61.25;95179.91;5067982;28;20441;-68
2021/06/12 05:13:54;;;;;;;12.23;7.27;;;;;;;17.72;60.60;95175.50;5053023;28;20466;-69
2021/06/12 05:16:22;;;;;;;10.97;7.57;;;;;;;17.95;60.23;95185.94;5054078;28;20471;-68
2021/06/12 05:18:49;;;;;;;12.87;9.70;;;;;;;17.97;59.51;95189.06;5052806;28;20474;-66
2021/06/12 05:21:17;;;;;;;15.33;9.93;;;;;;;18.07;59.38;95182.78;5053547;28;20464;-67
2021/06/12 05:23:44;;;;;;;15.53;11.17;;;;;;;18.20;59.12;95182.00;5066987;28;20481;-66
2021/06/12 05:26:14;;;;;;;17.40;11.67;;;;;;;18.10;59.48;95192.84;5063073;28;20442;-67
2021/06/12 05:28:41;;;;;;;17.93;13.67;;;;;;;18.14;59.57;95193.78;5073018;28;20457;-69
2021/06/12 05:31:08;;;;;;;20.70;15.33;;;;;;;18.12;59.30;95191.44;5073094;28;20470;-72
2021/06/12 05:33:35;;;;;;;18.97;14.17;;;;;;;18.34;59.24;95195.28;5058580;28;20454;-73
2021/06/12 05:36:04;;;;;;;22.50;15.07;;;;;;;18.34;59.36;95188.09;5066854;28;20489;-72
2021/06/12 05:38:32;;;;;;;18.67;13.27;;;;;;;18.43;59.26;95186.34;5068827;28;20446;-72
2021/06/12 05:41:00;;;;;;;21.40;12.20;;;;;;;18.38;58.55;95180.31;5073618;28;20460;-69
2021/06/12 05:43:27;;;;;;;18.07;10.70;;;;;;;18.16;59.34;95192.44;5056904;28;20445;-68
2021/06/12 05:45:54;;;;;;;17.67;10.07;;;;;;;18.34;59.07;95198.69;5071853;28;20810;-72
2021/06/12 05:48:24;;;;;;;16.20;8.70;;;;;;;18.41;58.23;95193.81;5072653;28;20442;-70
2021/06/12 05:50:52;;;;;;;9.30;7.07;;;;;;;18.36;56.73;95185.94;5073642;28;21014;-68
2021/06/12 05:53:19;;;;;;;11.33;6.70;;;;;;;18.34;56.08;95192.63;5060922;28;20442;-69
2021/06/12 05:55:46;;;;;;;9.63;6.73;;;;;;;17.87;57.31;95194.56;5071420;28;20434;-72
2021/06/12 05:58:13;;;;;;;12.47;6.77;;;;;;;18.23;56.97;95197.31;5072657;28;20446;-70
2021/06/12 06:00:40;;;;;;;8.60;6.50;;;;;;;18.29;55.87;95185.53;5072460;28;20473;-71
2021/06/12 06:03:07;;;;;;;9.00;6.70;;;;;;;18.56;56.03;95190.84;5064099;28;20439;-69
2021/06/12 06:05:34;;;;;;;11.83;6.20;;;;;;;18.62;56.23;95183.56;5059917;28;20442;-74
2021/06/12 06:08:01;;;;;;;9.47;6.77;;;;;;;18.50;55.70;95185.94;5071743;28;20449;-70
2021/06/12 06:10:28;;;;;;;8.87;7.17;;;;;;;18.39;55.53;95185.34;5065959;28;20437;-71
2021/06/12 06:13:00;;;;;;;8.10;6.33;;;;;;;18.60;55.62;95189.16;5063890;28;20446;-69
2021/06/12 06:15:27;;;;;;;14.27;6.33;;;;;;;18.90;55.49;95191.16;5066910;28;20435;-69
2021/06/12 06:17:54;;;;;;;6.10;5.40;;;;;;;18.87;55.02;95181.13;5052842;28;20451;-70
2021/06/12 06:20:21;;;;;;;8.67;5.90;;;;;;;19.12;54.51;95171.81;5055329;28;20486;-72
2021/06/12 06:22:48;;;;;;;7.83;5.60;;;;;;;19.10;54.02;95168.66;5062773;28;20439;-70
2021/06/12 06:25:15;;;;;;;9.07;5.43;;;;;;;19.26;53.25;95171.75;5051586;28;20471;-66
2021/06/12 06:27:43;;;;;;;8.37;5.53;;;;;;;19.43;52.86;95171.88;5052326;28;20457;-71
2021/06/12 06:30:14;;;;;;;7.97;5.63;;;;;;;19.43;52.94;95172.69;5052167;28;20451;-67
2021/06/12 06:32:41;;;;;;;6.03;5.03;;;;;;;18.88;53.00;95173.97;5066722;28;20435;-70
2021/06/12 06:35:10;;;;;;;9.07;4.67;;;;;;;19.44;52.24;95173.44;5051976;28;20542;-70
2021/06/12 06:37:36;;;;;;;8.87;5.13;;;;;;;19.62;54.04;95172.44;5071802;28;20466;-70
2021/06/12 06:40:04;;;;;;;7.47;5.10;;;;;;;19.96;52.98;95175.28;5070460;28;20481;-70
2021/06/12 06:42:31;;;;;;;6.37;4.90;;;;;;;19.97;53.84;95163.56;5059757;28;20493;-72
2021/06/12 06:44:58;;;;;;;9.03;5.27;;;;;;;20.20;51.64;95175.72;5071241;28;20434;-69
2021/06/12 06:47:25;;;;;;;7.67;4.97;;;;;;;20.46;50.80;95163.25;5052608;28;20865;-67
2021/06/12 06:49:52;;;;;;;7.23;4.90;;;;;;;20.53;51.89;95168.13;5051953;28;20442;-70
2021/06/12 06:52:19;;;;;;;5.20;4.63;;;;;;;20.75;51.08;95166.13;5066023;28;20530;-68
2021/06/12 06:54:46;;;;;;;9.03;5.40;;;;;;;20.37;49.70;95167.78;5060271;28;20820;-70
2021/06/12 06:57:13;;;;;;;6.37;5.00;;;;;;;20.53;51.00;95168.13;5071809;28;20256;-71
2021/06/12 06:59:40;;;;;;;8.10;5.33;;;;;;;20.90;49.84;95167.53;5071716;28;20473;-69
2021/06/12 07:02:07;;;;;;;6.73;5.43;;;;;;;21.12;48.60;95160.22;5071241;28;20283;-69
2021/06/12 07:04:37;;;;;;;8.90;5.70;;;;;;;21.15;48.77;95164.09;5070910;28;20196;-73
2021/06/12 07:07:05;;;;;;;7.73;5.43;;;;;;;21.40;48.63;95154.53;5058112;28;20430;-70
2021/06/12 07:09:32;;;;;;;11.13;5.70;;;;;;;21.21;48.61;95159.41;5071324;28;20201;-70
2021/06/12 07:12:01;;;;;;;7.37;5.93;;;;;;;21.28;48.55;95157.03;5052595;28;20203;-72
2021/06/12 07:14:29;;;;;;;6.17;5.20;;;;;;;21.48;48.63;95156.38;5051291;28;20500;-72
2021/06/12 07:16:56;;;;;;;6.57;5.30;;;;;;;21.63;48.62;95153.22;5051149;28;20196;-70
2021/06/12 07:19:24;;;;;;;7.33;6.00;;;;;;;21.61;48.07;95160.75;5060480;28;20771;-69
2021/06/12 07:21:51;;;;;;;8.43;6.53;;;;;;;21.20;48.80;95144.53;5054014;28;20667;-68
2021/06/12 07:24:18;;;;;;;10.50;6.20;;;;;;;21.49;48.46;95147.28;5058110;28;20279;-74
2021/06/12 07:26:45;;;;;;;8.67;6.00;;;;;;;21.65;49.25;95151.00;5070954;28;20678;-69
2021/06/12 07:29:12;;;;;;;8.87;6.10;;;;;;;21.44;47.44;95140.22;5056918;28;20191;-70
2021/06/12 07:31:41;;;;;;;7.60;6.30;;;;;;;21.78;47.72;95139.38;5070947;28;20316;-70
2021/06/12 07:34:10;;;;;;;7.47;6.07;;;;;;;21.93;49.36;95146.88;5051752;28;20204;-69
2021/06/12 07:36:38;;;;;;;8.70;6.57;;;;;;;21.98;48.47;95136.03;5062121;28;20204;-71
2021/06/12 07:39:07;;;;;;;9.37;6.30;;;;;;;22.04;48.37;95137.41;5063328;28;20574;-67
2021/06/12 07:41:35;;;;;;;6.43;5.83;;;;;;;22.18;48.51;95137.97;5064750;28;20302;-72
2021/06/12 07:44:03;;;;;;;12.27;6.80;;;;;;;21.72;48.11;95135.31;5055985;28;20693;-70
2021/06/12 07:46:31;;;;;;;6.37;5.77;;;;;;;20.77;48.86;95137.28;5070724;28;20200;-70
2021/06/12 07:48:58;;;;;;;7.77;6.27;;;;;;;21.49;47.71;95126.75;5070423;28;20200;-73
2021/06/12 07:51:31;;;;;;;6.47;5.87;;;;;;;21.57;47.42;95133.94;5070858;28;20203;-71
2021/06/12 07:54:00;;;;;;;10.53;5.37;;;;;;;21.96;47.61;95130.22;5052164;28;20216;-69
2021/06/12 07:56:27;;;;;;;7.47;5.50;;;;;;;22.00;47.59;95131.16;5061306;28;20210;-67
2021/06/12 07:58:54;;;;;;;6.73;6.00;;;;;;;22.16;46.08;95129.50;5055436;28;20721;-70
2021/06/12 08:01:21;;;;;;;8.93;5.87;;;;;;;22.11;47.03;95132.34;5070385;28;20206;-68
2021/06/12 08:03:48;;;;;;;8.73;6.07;;;;;;;22.33;47.05;95126.75;5055685;28;20258;-70
2021/06/12 08:06:15;;;;;;;6.70;5.60;;;;;;;22.04;45.77;95129.41;5057741;28;20200;-72
2021/06/12 08:08:42;;;;;;;6.33;5.50;;;;;;;22.10;46.10;95130.78;5055120;28;20196;-70
2021/06/12 08:11:09;;;;;;;8.33;5.57;;;;;;;22.48;45.95;95131.50;5058760;28;20217;-72
2021/06/12 08:13:36;;;;;;;5.97;4.93;;;;;;;22.75;46.14;95128.38;5050105;28;20250;-72
2021/06/12 08:16:05;;;;;;;11.73;6.30;;;;;;;22.46;44.52;95122.25;5060423;28;20195;-68
2021/06/12 08:18:33;;;;;;;6.23;5.40;;;;;;;22.49;45.00;95122.41;5055591;28;20215;-70
2021/06/12 08:21:00;;;;;;;10.97;5.77;;;;;;;22.67;44.48;95118.53;5070549;28;20212;-71
2021/06/12 08:23:27;;;;;;;5.83;5.13;;;;;;;22.77;43.76;95123.47;5055694;28;20287;-71
2021/06/12 08:25:54;;;;;;;9.63;5.30;;;;;;;22.77;44.74;95118.13;5063049;28;20196;-70
2021/06/12 08:28:22;;;;;;;6.33;5.50;;;;;;;23.31;45.25;95115.50;5050084;28;20281;-72
2021/06/12 08:30:49;;;;;;;8.27;5.80;;;;;;;22.42;43.70;95121.34;5069566;28;20231;-68
2021/06/12 08:33:17;;;;;;;9.47;5.50;;;;;;;22.24;45.08;95115.34;5057392;28;20274;-71
2021/06/12 08:35:44;;;;;;;6.33;4.90;;;;;;;22.76;44.50;95116.56;5067650;28;20336;-73
2021/06/12 08:38:11;;;;;;;8.03;5.53;;;;;;;22.66;43.47;95106.25;5069962;28;20623;-66
2021/06/12 08:40:39;;;;;;;6.17;5.30;;;;;;;23.32;42.98;95111.72;5055981;28;20215;-69
2021/06/12 08:43:06;;;;;;;5.40;4.90;;;;;;;23.47;42.96;95108.41;5070569;28;20653;-72
2021/06/12 08:45:34;;;;;;;8.57;5.13;;;;;;;23.44;42.34;95103.72;5069436;28;20199;-70
2021/06/12 08:48:02;;;;;;;7.30;5.37;;;;;;;23.20;42.52;95108.97;5068778;28;20199;-71
2021/06/12 08:50:30;;;;;;;5.93;5.30;;;;;;;23.30;42.82;95108.59;5069497;28;20188;-72
2021/06/12 08:52:58;;;;;;;7.50;5.00;;;;;;;23.48;42.29;95099.28;5070182;28;20234;-69
2021/06/12 08:55:40;;;;;;;6.67;5.00;;;;;;;23.32;41.39;95098.34;5069335;28;20811;-68
2021/06/12 08:58:07;;;;;;;5.67;5.07;;;;;;;23.97;41.81;95090.19;5060048;28;20199;-68
2021/06/12 09:00:34;;;;;;;5.83;5.20;;;;;;;24.27;40.30;95091.53;5062813;28;20241;-72
2021/06/12 09:03:10;;;;;;;6.77;5.20;;;;;;;24.36;40.16;95092.19;5056806;28;20581;-71
2021/06/12 09:05:52;;;;;;;7.33;5.30;;;;;;;24.32;41.59;95085.97;5061519;28;20572;-68
2021/06/12 09:08:25;;;;;;;5.73;4.93;;;;;;;24.63;40.44;95072.75;5048971;28;20216;-72
2021/06/12 09:10:54;;;;;;;4.90;4.40;;;;;;;24.80;39.21;95071.69;5058949;28;20188;-68
2021/06/12 09:14:01;;;;;;;6.47;4.73;;;;;;;24.80;39.73;95077.84;5052832;28;20211;-71
2021/06/12 09:16:36;;;;;;;6.97;4.53;;;;;;;24.68;41.15;95069.81;5062695;28;20211;-68
2021/06/12 09:19:15;;;;;;;3.93;3.63;;;;;;;24.92;38.61;95069.78;5061528;28;20200;-68
2021/06/12 09:21:41;;;;;;;7.03;4.53;;;;;;;25.09;39.17;95066.78;5049942;28;20197;-70
2021/06/12 09:24:41;;;;;;;5.33;4.13;;;;;;;25.41;38.25;95064.19;5062409;28;20201;-70
2021/06/12 09:27:16;;;;;;;7.13;3.60;;;;;;;25.30;37.73;95049.69;5062194;28;20230;-70
2021/06/12 09:29:46;;;;;;;7.03;4.03;;;;;;;25.30;37.44;95060.41;5058845;28;20211;-70
2021/06/12 09:32:19;;;;;;;5.77;3.90;;;;;;;25.50;36.92;95054.84;5069130;28;20334;-70
2021/06/12 09:34:53;;;;;;;5.97;4.10;;;;;;;25.78;38.26;95054.78;5058850;28;20327;-72
2021/06/12 09:37:22;;;;;;;6.30;3.93;;;;;;;25.85;36.94;95054.94;5056491;28;20220;-70
2021/06/12 09:40:11;;;;;;;4.80;3.90;;;;;;;25.47;36.62;95062.81;5068954;28;20210;-69
2021/06/12 09:42:48;;;;;;;3.60;3.30;;;;;;;25.12;36.75;95059.16;5069531;28;20192;-72
2021/06/12 09:45:16;;;;;;;5.03;3.70;;;;;;;24.97;37.16;95064.16;5055045;28;20196;-70
2021/06/12 09:47:44;;;;;;;6.43;3.87;;;;;;;24.74;38.10;95055.06;5070294;28;20191;-69
2021/06/12 09:50:14;;;;;;;5.10;3.83;;;;;;;24.95;39.81;95050.31;5072228;28;20204;-72
2021/06/12 09:52:50;;;;;;;7.43;4.13;;;;;;;25.34;36.90;95045.19;5066099;28;20188;-71
2021/06/12 09:55:30;;;;;;;5.23;3.80;;;;;;;25.34;36.66;95045.19;5066902;28;20203;-67
2021/06/12 09:58:01;;;;;;;7.77;3.87;;;;;;;24.62;37.08;95040.91;5072753;28;20200;-72
2021/06/12 10:00:36;;;;;;;4.00;3.00;;;;;;;24.76;36.63;95046.72;5071819;28;20299;-69
2021/06/12 10:03:15;;;;;;;6.90;3.67;;;;;;;25.30;35.64;95044.31;5072819;28;20215;-69
2021/06/12 10:05:44;;;;;;;5.30;3.23;;;;;;;25.30;35.02;95038.97;5063809;28;20197;-69
2021/06/12 10:08:16;;;;;;;3.67;3.33;;;;;;;25.82;35.65;95042.22;5052337;28;20678;-69
2021/06/12 10:10:48;;;;;;;4.03;3.30;;;;;;;26.23;35.58;95036.28;5058717;28;20253;-72
2021/06/12 10:13:17;;;;;;;5.97;4.00;;;;;;;26.52;35.25;95025.03;5052274;28;20204;-68
2021/06/12 10:15:48;;;;;;;8.67;4.13;;;;;;;26.72;36.68;95028.50;5052168;28;20185;-68
2021/06/12 10:18:21;;;;;;;7.47;3.50;;;;;;;27.16;35.24;95029.75;5052278;28;20231;-70
2021/06/12 10:20:49;;;;;;;4.97;3.43;;;;;;;27.28;34.65;95024.19;5058232;28;20223;-69
2021/06/12 10:23:16;;;;;;;4.87;3.10;;;;;;;27.01;32.89;95019.88;5058858;28;20220;-67
2021/06/12 10:25:43;;;;;;;4.87;3.60;;;;;;;27.11;33.81;95018.50;5051529;28;20200;-70
2021/06/12 10:28:10;;;;;;;3.67;3.37;;;;;;;27.41;34.42;95027.56;5051931;28;20188;-69
2021/06/12 10:30:41;;;;;;;5.87;3.40;;;;;;;27.26;34.72;95025.72;5069626;28;20693;-69
2021/06/12 10:33:09;;;;;;;9.73;4.07;;;;;;;26.95;34.96;95022.06;5061624;28;20200;-72
2021/06/12 10:35:36;;;;;;;7.60;3.70;;;;;;;26.72;35.45;95026.63;5066416;28;20191;-70
2021/06/12 10:38:14;;;;;;;5.47;3.70;;;;;;;26.50;35.56;95032.66;5071719;28;20188;-70
2021/06/12 10:40:56;;;;;;;7.77;3.57;;;;;;;26.08;36.27;95037.09;5057826;28;20207;-70
2021/06/12 10:43:27;;;;;;;7.23;4.00;;;;;;;25.36;38.95;95040.28;5057572;28;20295;-70
2021/06/12 10:46:06;;;;;;;4.47;4.03;;;;;;;25.56;39.01;95032.00;5071919;28;20556;-70
2021/06/12 10:48:42;;;;;;;5.70;4.50;;;;;;;25.24;40.52;95032.28;5071612;28;20222;-71
2021/06/12 10:51:14;;;;;;;7.07;4.23;;;;;;;25.23;40.62;95030.72;5071811;28;20287;-71
2021/06/12 10:53:45;;;;;;;5.23;4.20;;;;;;;24.97;39.97;95018.59;5057137;28;20280;-70
2021/06/12 10:56:31;;;;;;;8.60;4.23;;;;;;;25.04;40.25;95029.50;5063279;28;20196;-71
2021/06/12 10:58:58;;;;;;;4.13;3.33;;;;;;;24.95;39.12;95023.50;5064763;28;20253;-68
2021/06/12 11:01:25;;;;;;;4.47;3.20;;;;;;;25.17;38.14;95013.31;5051408;28;20212;-68
2021/06/12 11:04:19;;;;;;;9.10;3.33;;;;;;;25.21;35.44;95014.19;5051908;28;20204;-70
2021/06/12 11:06:56;;;;;;;2.83;2.63;;;;;;;25.50;36.26;95014.59;5053539;28;20441;-68
2021/06/12 11:09:33;;;;;;;6.77;2.83;;;;;;;25.83;35.61;95008.88;5061811;28;20946;-69
2021/06/12 11:12:15;;;;;;;4.73;3.43;;;;;;;25.76;36.92;95008.72;5057107;28;20199;-68
2021/06/12 11:14:55;;;;;;;8.53;4.33;;;;;;;25.71;38.67;95007.06;5069867;28;20203;-67
2021/06/12 11:17:22;;;;;;;7.27;4.67;;;;;;;25.45;38.75;94992.63;5064249;28;20196;-69
2021/06/12 11:19:58;;;;;;;6.20;4.07;;;;;;;25.40;39.34;95007.06;5064060;28;20196;-71
2021/06/12 11:22:26;;;;;;;3.97;3.57;;;;;;;25.81;39.22;95000.38;5051330;28;20206;-71
2021/06/12 11:25:24;;;;;;;4.50;3.73;;;;;;;26.23;38.86;95009.44;5063458;28;20560;-72
2021/06/12 11:28:30;;;;;;;6.10;2.90;;;;;;;26.74;38.26;95000.16;5050725;28;20192;-70
2021/06/12 11:31:37;;;;;;;6.37;3.37;;;;;;;27.00;37.44;94999.50;5048371;28;20270;-68
2021/06/12 11:34:15;;;;;;;3.77;3.47;;;;;;;26.83;37.61;94987.28;5061927;28;20619;-72
2021/06/12 11:36:43;;;;;;;5.23;3.87;;;;;;;26.80;37.82;94993.38;5051552;28;20583;-68
2021/06/12 11:39:11;;;;;;;4.20;3.80;;;;;;;26.92;37.09;94990.50;5070358;28;20184;-70
2021/06/12 11:41:38;;;;;;;3.83;3.20;;;;;;;26.79;37.93;94974.88;5070800;28;20231;-71
2021/06/12 11:44:07;;;;;;;4.40;3.10;;;;;;;26.63;37.99;94971.47;5050705;28;20193;-68